Bahia Uno — ECFT — position and weather

sailwx.info

Track history (hours):
 
Tides and Currents Weather Stations Pressure Air Temp Water Temp Dewpoint Dewpoint Depression Visibility Wind Speed Wind Dir Waves Ship Positions

Bahia Uno

Last reported at 2016-Feb-09 07:33 UTC. Time now 2016-Feb-09 11:46 UTC.
Position N 36°08' W 005°26'.

Length 40 m; draft 5.5 m.

Type: Ship. MMSI: 224127820.

Date/timePositionNaut miles runAvg speedWind from/ knotsBaromVisibWave heightAir tempDewpointWater temp
2016-Feb-09 07:33N 36°08' W 005°26'0 0.0
2016-Feb-09 05:32N 36°08' W 005°26'0 0.0
2016-Feb-09 04:28N 36°08' W 005°26'0 0.0
2016-Feb-09 03:33N 36°08' W 005°26'0 0.0
2016-Feb-09 02:24N 36°08' W 005°26'0 0.0
2016-Feb-09 01:32N 36°08' W 005°26'0 0.0
2016-Feb-09 00:03N 36°08' W 005°26'0 0.0
2016-Feb-08 07:29N 36°08' W 005°26'1 0.3
2016-Feb-08 05:18N 36°09' W 005°26'0 0.0
2016-Feb-08 04:32N 36°09' W 005°26'0 0.0
2016-Feb-08 01:33N 36°09' W 005°26'0 0.0
2016-Feb-08 00:33N 36°09' W 005°26'0 0.0
2016-Feb-07 23:08N 36°09' W 005°26'0 0.0
2016-Feb-07 22:25N 36°09' W 005°26'0 0.0
2016-Feb-07 16:33N 36°09' W 005°26'0 0.0
2016-Feb-07 15:31N 36°09' W 005°26'0 0.0
2016-Feb-07 14:33N 36°09' W 005°26'0 0.0
2016-Feb-07 13:33N 36°09' W 005°26'0 0.0
2016-Feb-07 12:32N 36°09' W 005°26'0 0.0
2016-Feb-07 11:27N 36°09' W 005°26'0 0.0
2016-Feb-07 10:30N 36°09' W 005°26'0 0.0
2016-Feb-07 09:32N 36°09' W 005°26'0 0.0
2016-Feb-07 08:33N 36°09' W 005°26'0 0.0
2016-Feb-07 07:30N 36°09' W 005°26'0 0.0
2016-Feb-07 06:33N 36°09' W 005°26'0 0.0
2016-Feb-07 05:33N 36°09' W 005°26'0 0.0
2016-Feb-07 04:33N 36°09' W 005°26'0 0.0
2016-Feb-07 03:33N 36°09' W 005°26'0 0.0
2016-Feb-07 02:33N 36°09' W 005°26'0 0.0
2016-Feb-07 01:27N 36°09' W 005°26'0 0.0
2016-Feb-07 00:31N 36°09' W 005°26'0 0.0
2016-Feb-06 22:10N 36°09' W 005°26'0 0.0
2016-Feb-06 21:30N 36°09' W 005°26'1 1.1
2016-Feb-06 20:33N 36°10' W 005°25'0 0.0
2016-Feb-06 19:33N 36°10' W 005°25'1 0.6
2016-Feb-06 18:26N 36°09' W 005°25'1 0.2
2016-Feb-06 14:30N 36°08' W 005°26'1 0.2
2016-Feb-06 10:33N 36°08' W 005°25'0 0.1
2016-Feb-06 09:33N 36°08' W 005°25'0 0.0
2016-Feb-06 08:33N 36°08' W 005°25'1 1.0
2016-Feb-06 07:29N 36°09' W 005°26'1 0.4
2016-Feb-06 06:14N 36°08' W 005°26'0 0.0
2016-Feb-06 05:33N 36°08' W 005°26'0 0.0
2016-Feb-06 04:33N 36°08' W 005°26'0 0.0
2016-Feb-05 23:25N 36°08' W 005°26'0 0.0
2016-Feb-05 22:33N 36°08' W 005°26'0 0.0
2016-Feb-05 21:25N 36°08' W 005°26'0 0.0
2016-Feb-05 05:30N 36°08' W 005°26'1 0.0
2016-Feb-04 08:33N 36°09' W 005°26'1 0.2
2016-Feb-04 05:33N 36°08' W 005°26'0 0.0
2016-Feb-04 02:34N 36°08' W 005°26'1 0.0
2016-Feb-03 13:32N 36°09' W 005°26'3 2.4
2016-Feb-03 12:15N 36°06' W 005°24'0 0.0
2016-Feb-03 10:33N 36°06' W 005°24'0 0.0
2016-Feb-03 09:33N 36°06' W 005°24'3 2.6
2016-Feb-03 08:24N 36°09' W 005°26'1 0.3
2016-Feb-03 06:30N 36°08' W 005°26'0 0.0
2016-Feb-03 05:32N 36°08' W 005°26'0 0.0
2016-Feb-03 04:07N 36°08' W 005°26'0 0.0
2016-Feb-03 03:23N 36°08' W 005°26'0 0.0
2016-Feb-03 02:04N 36°08' W 005°26'0 0.0
2016-Feb-03 00:19N 36°08' W 005°26'0 0.0
2016-Feb-02 23:33N 36°08' W 005°26'0 0.0
2016-Feb-02 21:33N 36°08' W 005°26'0 0.0
2016-Feb-01 22:28N 36°08' W 005°26'1 0.3
2016-Feb-01 19:27N 36°09' W 005°26'3 2.6
2016-Feb-01 18:21N 36°06' W 005°25'0 0.0
2016-Feb-01 13:30N 36°06' W 005°25'0 0.0
2016-Feb-01 11:31N 36°06' W 005°25'2 0.2
2016-Jan-31 22:33N 36°08' W 005°26'0 0.0
2016-Jan-31 13:04N 36°08' W 005°26'0 0.6
2016-Jan-31 12:31N 36°08' W 005°26'0 0.0
2016-Jan-31 11:07N 36°08' W 005°26'0 0.0
2016-Jan-31 10:31N 36°08' W 005°26'0 0.1
2016-Jan-31 06:23N 36°08' W 005°26'0 0.0
2016-Jan-31 05:33N 36°08' W 005°26'0 0.0
2016-Jan-31 04:33N 36°08' W 005°26'1 0.2
2016-Jan-31 01:32N 36°09' W 005°26'0 0.0
2016-Jan-31 00:29N 36°09' W 005°26'0 0.0
2016-Jan-30 23:25N 36°09' W 005°26'0 0.0
2016-Jan-30 19:31N 36°09' W 005°26'1 0.3
2016-Jan-30 17:18N 36°08' W 005°26'0 0.0
2016-Jan-30 16:33N 36°08' W 005°26'0 0.0
2016-Jan-30 14:10N 36°08' W 005°26'0 0.0
2016-Jan-30 13:33N 36°08' W 005°26'2 2.2
2016-Jan-30 12:28N 36°06' W 005°25'0 0.2
2016-Jan-30 11:24N 36°06' W 005°25'0 0.0
2016-Jan-30 08:22N 36°06' W 005°25'  
Track history (hours):
 
Tides and Currents Weather Stations Pressure Air Temp Water Temp Dewpoint Dewpoint Depression Visibility Wind Speed Wind Dir Waves Ship Positions

Bahia Uno

Last reported at 2016-Feb-09 07:33 UTC. Time now 2016-Feb-09 11:46 UTC.
Position N 36°08' W 005°26'.

Length 40 m; draft 5.5 m.

Type: Ship. MMSI: 224127820.

Date/timePositionNaut miles runAvg speedWind from/ knotsBaromVisibWave heightAir tempDewpointWater temp
2016-Feb-09 07:33N 36°08' W 005°26'0 0.0
2016-Feb-09 05:32N 36°08' W 005°26'0 0.0
2016-Feb-09 04:28N 36°08' W 005°26'0 0.0
2016-Feb-09 03:33N 36°08' W 005°26'0 0.0
2016-Feb-09 02:24N 36°08' W 005°26'0 0.0
2016-Feb-09 01:32N 36°08' W 005°26'0 0.0
2016-Feb-09 00:03N 36°08' W 005°26'0 0.0
2016-Feb-08 07:29N 36°08' W 005°26'1 0.3
2016-Feb-08 05:18N 36°09' W 005°26'0 0.0
2016-Feb-08 04:32N 36°09' W 005°26'0 0.0
2016-Feb-08 01:33N 36°09' W 005°26'0 0.0
2016-Feb-08 00:33N 36°09' W 005°26'0 0.0
2016-Feb-07 23:08N 36°09' W 005°26'0 0.0
2016-Feb-07 22:25N 36°09' W 005°26'0 0.0
2016-Feb-07 16:33N 36°09' W 005°26'0 0.0
2016-Feb-07 15:31N 36°09' W 005°26'0 0.0
2016-Feb-07 14:33N 36°09' W 005°26'0 0.0
2016-Feb-07 13:33N 36°09' W 005°26'0 0.0
2016-Feb-07 12:32N 36°09' W 005°26'0 0.0
2016-Feb-07 11:27N 36°09' W 005°26'0 0.0
2016-Feb-07 10:30N 36°09' W 005°26'0 0.0
2016-Feb-07 09:32N 36°09' W 005°26'0 0.0
2016-Feb-07 08:33N 36°09' W 005°26'0 0.0
2016-Feb-07 07:30N 36°09' W 005°26'0 0.0
2016-Feb-07 06:33N 36°09' W 005°26'0 0.0
2016-Feb-07 05:33N 36°09' W 005°26'0 0.0
2016-Feb-07 04:33N 36°09' W 005°26'0 0.0
2016-Feb-07 03:33N 36°09' W 005°26'0 0.0
2016-Feb-07 02:33N 36°09' W 005°26'0 0.0
2016-Feb-07 01:27N 36°09' W 005°26'0 0.0
2016-Feb-07 00:31N 36°09' W 005°26'0 0.0
2016-Feb-06 22:10N 36°09' W 005°26'0 0.0
2016-Feb-06 21:30N 36°09' W 005°26'1 1.1
2016-Feb-06 20:33N 36°10' W 005°25'0 0.0
2016-Feb-06 19:33N 36°10' W 005°25'1 0.6
2016-Feb-06 18:26N 36°09' W 005°25'1 0.2
2016-Feb-06 14:30N 36°08' W 005°26'1 0.2
2016-Feb-06 10:33N 36°08' W 005°25'0 0.1
2016-Feb-06 09:33N 36°08' W 005°25'0 0.0
2016-Feb-06 08:33N 36°08' W 005°25'1 1.0
2016-Feb-06 07:29N 36°09' W 005°26'1 0.4
2016-Feb-06 06:14N 36°08' W 005°26'0 0.0
2016-Feb-06 05:33N 36°08' W 005°26'0 0.0
2016-Feb-06 04:33N 36°08' W 005°26'0 0.0
2016-Feb-05 23:25N 36°08' W 005°26'0 0.0
2016-Feb-05 22:33N 36°08' W 005°26'0 0.0
2016-Feb-05 21:25N 36°08' W 005°26'0 0.0
2016-Feb-05 05:30N 36°08' W 005°26'1 0.0
2016-Feb-04 08:33N 36°09' W 005°26'1 0.2
2016-Feb-04 05:33N 36°08' W 005°26'0 0.0
2016-Feb-04 02:34N 36°08' W 005°26'1 0.0
2016-Feb-03 13:32N 36°09' W 005°26'3 2.4
2016-Feb-03 12:15N 36°06' W 005°24'0 0.0
2016-Feb-03 10:33N 36°06' W 005°24'0 0.0
2016-Feb-03 09:33N 36°06' W 005°24'3 2.6
2016-Feb-03 08:24N 36°09' W 005°26'1 0.3
2016-Feb-03 06:30N 36°08' W 005°26'0 0.0
2016-Feb-03 05:32N 36°08' W 005°26'0 0.0
2016-Feb-03 04:07N 36°08' W 005°26'0 0.0
2016-Feb-03 03:23N 36°08' W 005°26'0 0.0
2016-Feb-03 02:04N 36°08' W 005°26'0 0.0
2016-Feb-03 00:19N 36°08' W 005°26'0 0.0
2016-Feb-02 23:33N 36°08' W 005°26'0 0.0
2016-Feb-02 21:33N 36°08' W 005°26'0 0.0
2016-Feb-01 22:28N 36°08' W 005°26'1 0.3
2016-Feb-01 19:27N 36°09' W 005°26'3 2.6
2016-Feb-01 18:21N 36°06' W 005°25'0 0.0
2016-Feb-01 13:30N 36°06' W 005°25'0 0.0
2016-Feb-01 11:31N 36°06' W 005°25'2 0.2
2016-Jan-31 22:33N 36°08' W 005°26'0 0.0
2016-Jan-31 13:04N 36°08' W 005°26'0 0.6
2016-Jan-31 12:31N 36°08' W 005°26'0 0.0
2016-Jan-31 11:07N 36°08' W 005°26'0 0.0
2016-Jan-31 10:31N 36°08' W 005°26'0 0.1
2016-Jan-31 06:23N 36°08' W 005°26'0 0.0
2016-Jan-31 05:33N 36°08' W 005°26'0 0.0
2016-Jan-31 04:33N 36°08' W 005°26'1 0.2
2016-Jan-31 01:32N 36°09' W 005°26'0 0.0
2016-Jan-31 00:29N 36°09' W 005°26'0 0.0
2016-Jan-30 23:25N 36°09' W 005°26'0 0.0
2016-Jan-30 19:31N 36°09' W 005°26'1 0.3
2016-Jan-30 17:18N 36°08' W 005°26'0 0.0
2016-Jan-30 16:33N 36°08' W 005°26'0 0.0
2016-Jan-30 14:10N 36°08' W 005°26'0 0.0
2016-Jan-30 13:33N 36°08' W 005°26'2 2.2
2016-Jan-30 12:28N 36°06' W 005°25'0 0.2
2016-Jan-30 11:24N 36°06' W 005°25'0 0.0
2016-Jan-30 08:22N 36°06' W 005°25'  

Dump ship's entire track history